sensor_id;sensor_type;location;lat;lon;timestamp;pressure;altitude;pressure_sealevel;temperature;humidity
71774;BME280;59607;52.130;5.430;2023-01-16T00:01:59;99681.34;;;5.42;100.00
71774;BME280;59607;52.130;5.430;2023-01-16T00:04:29;99675.66;;;5.39;100.00
71774;BME280;59607;52.130;5.430;2023-01-16T00:06:55;99685.25;;;5.38;100.00
71774;BME280;59607;52.130;5.430;2023-01-16T00:09:37;99675.03;;;5.37;100.00
71774;BME280;59607;52.130;5.430;2023-01-16T00:12:04;99673.53;;;5.34;100.00
71774;BME280;59607;52.130;5.430;2023-01-16T00:14:33;99667.19;;;5.28;100.00
71774;BME280;59607;52.130;5.430;2023-01-16T00:16:59;99652.84;;;5.24;100.00
71774;BME280;59607;52.130;5.430;2023-01-16T00:19:29;99644.72;;;5.19;100.00
71774;BME280;59607;52.130;5.430;2023-01-16T00:21:58;99646.16;;;5.13;100.00
71774;BME280;59607;52.130;5.430;2023-01-16T00:24:24;99641.28;;;5.10;100.00
71774;BME280;59607;52.130;5.430;2023-01-16T00:26:53;99639.66;;;5.09;100.00
71774;BME280;59607;52.130;5.430;2023-01-16T00:29:25;99635.56;;;5.06;100.00
71774;BME280;59607;52.130;5.430;2023-01-16T00:31:51;99631.97;;;4.99;100.00
71774;BME280;59607;52.130;5.430;2023-01-16T00:34:19;99626.75;;;4.91;100.00
71774;BME280;59607;52.130;5.430;2023-01-16T00:36:46;99628.16;;;4.85;100.00
71774;BME280;59607;52.130;5.430;2023-01-16T00:39:12;99621.00;;;4.79;100.00
71774;BME280;59607;52.130;5.430;2023-01-16T00:41:39;99603.75;;;4.69;100.00
71774;BME280;59607;52.130;5.430;2023-01-16T00:44:10;99607.31;;;4.68;100.00
71774;BME280;59607;52.130;5.430;2023-01-16T00:46:36;99607.81;;;4.72;100.00
71774;BME280;59607;52.130;5.430;2023-01-16T00:49:03;99597.41;;;4.72;100.00
71774;BME280;59607;52.130;5.430;2023-01-16T00:51:29;99601.00;;;4.71;100.00
71774;BME280;59607;52.130;5.430;2023-01-16T00:53:56;99586.06;;;4.73;100.00
71774;BME280;59607;52.130;5.430;2023-01-16T00:56:22;99583.16;;;4.76;100.00
71774;BME280;59607;52.130;5.430;2023-01-16T00:58:51;99573.59;;;4.77;100.00
71774;BME280;59607;52.130;5.430;2023-01-16T01:01:21;99576.84;;;4.79;100.00
71774;BME280;59607;52.130;5.430;2023-01-16T01:03:48;99571.31;;;4.82;100.00
71774;BME280;59607;52.130;5.430;2023-01-16T01:06:23;99574.44;;;4.86;100.00
71774;BME280;59607;52.130;5.430;2023-01-16T01:08:49;99566.97;;;4.91;100.00
71774;BME280;59607;52.130;5.430;2023-01-16T01:11:16;99564.22;;;4.92;100.00
71774;BME280;59607;52.130;5.430;2023-01-16T01:13:46;99559.22;;;4.99;100.00
71774;BME280;59607;52.130;5.430;2023-01-16T01:16:14;99549.00;;;5.06;100.00
71774;BME280;59607;52.130;5.430;2023-01-16T01:18:41;99549.66;;;5.16;100.00
71774;BME280;59607;52.130;5.430;2023-01-16T01:21:12;99541.38;;;5.13;100.00
71774;BME280;59607;52.130;5.430;2023-01-16T01:23:39;99541.38;;;5.13;100.00
71774;BME280;59607;52.130;5.430;2023-01-16T01:26:28;99541.38;;;5.21;100.00
71774;BME280;59607;52.130;5.430;2023-01-16T01:28:57;99540.88;;;5.17;100.00
71774;BME280;59607;52.130;5.430;2023-01-16T01:31:25;99542.84;;;5.15;100.00
71774;BME280;59607;52.130;5.430;2023-01-16T01:33:54;99537.81;;;5.14;100.00
71774;BME280;59607;52.130;5.430;2023-01-16T01:36:24;99530.03;;;5.14;100.00
71774;BME280;59607;52.130;5.430;2023-01-16T01:38:50;99519.94;;;5.19;100.00
71774;BME280;59607;52.130;5.430;2023-01-16T01:41:25;99505.50;;;5.25;100.00
71774;BME280;59607;52.130;5.430;2023-01-16T01:43:54;99515.56;;;5.28;100.00
71774;BME280;59607;52.130;5.430;2023-01-16T01:46:46;99499.81;;;5.21;100.00
71774;BME280;59607;52.130;5.430;2023-01-16T01:49:16;99492.31;;;5.18;100.00
71774;BME280;59607;52.130;5.430;2023-01-16T01:51:51;99485.00;;;5.13;100.00
71774;BME280;59607;52.130;5.430;2023-01-16T01:54:25;99483.72;;;5.09;100.00
71774;BME280;59607;52.130;5.430;2023-01-16T01:57:42;99483.88;;;5.08;100.00
71774;BME280;59607;52.130;5.430;2023-01-16T02:00:18;99482.72;;;5.10;100.00
71774;BME280;59607;52.130;5.430;2023-01-16T02:02:53;99487.44;;;5.15;100.00
71774;BME280;59607;52.130;5.430;2023-01-16T02:05:26;99483.88;;;5.16;100.00
71774;BME280;59607;52.130;5.430;2023-01-16T02:08:00;99480.63;;;5.14;100.00
71774;BME280;59607;52.130;5.430;2023-01-16T02:11:36;99481.09;;;5.17;100.00
71774;BME280;59607;52.130;5.430;2023-01-16T02:13:32;99467.63;;;5.14;100.00
71774;BME280;59607;52.130;5.430;2023-01-16T02:16:04;99461.63;;;5.13;100.00
71774;BME280;59607;52.130;5.430;2023-01-16T02:18:50;99456.06;;;5.00;100.00
71774;BME280;59607;52.130;5.430;2023-01-16T02:24:14;99443.72;;;4.85;100.00
71774;BME280;59607;52.130;5.430;2023-01-16T02:38:54;99421.81;;;4.88;100.00
71774;BME280;59607;52.130;5.430;2023-01-16T02:44:23;99413.03;;;4.97;100.00
71774;BME280;59607;52.130;5.430;2023-01-16T02:49:46;99415.16;;;5.02;100.00
71774;BME280;59607;52.130;5.430;2023-01-16T02:55:26;99396.31;;;4.91;100.00
71774;BME280;59607;52.130;5.430;2023-01-16T02:58:01;99391.91;;;4.75;100.00
71774;BME280;59607;52.130;5.430;2023-01-16T03:00:28;99391.91;;;4.67;100.00
71774;BME280;59607;52.130;5.430;2023-01-16T03:02:55;99386.38;;;4.62;100.00
71774;BME280;59607;52.130;5.430;2023-01-16T03:05:32;99369.31;;;4.59;100.00
71774;BME280;59607;52.130;5.430;2023-01-16T03:16:08;99344.31;;;4.50;100.00
71774;BME280;59607;52.130;5.430;2023-01-16T03:19:12;99329.38;;;4.43;100.00
71774;BME280;59607;52.130;5.430;2023-01-16T03:36:37;99299.59;;;3.96;100.00
71774;BME280;59607;52.130;5.430;2023-01-16T03:39:13;99292.44;;;3.90;100.00
71774;BME280;59607;52.130;5.430;2023-01-16T03:41:43;99283.84;;;3.81;100.00
71774;BME280;59607;52.130;5.430;2023-01-16T03:44:25;99279.13;;;3.76;100.00
71774;BME280;59607;52.130;5.430;2023-01-16T03:47:06;99288.00;;;3.74;100.00
71774;BME280;59607;52.130;5.430;2023-01-16T03:49:40;99270.47;;;3.67;100.00
71774;BME280;59607;52.130;5.430;2023-01-16T03:52:18;99271.78;;;3.63;100.00
71774;BME280;59607;52.130;5.430;2023-01-16T03:55:02;99266.25;;;3.58;100.00
71774;BME280;59607;52.130;5.430;2023-01-16T03:57:46;99254.53;;;3.54;100.00
71774;BME280;59607;52.130;5.430;2023-01-16T04:00:15;99254.22;;;3.49;100.00
71774;BME280;59607;52.130;5.430;2023-01-16T04:03:10;99249.31;;;3.45;100.00
71774;BME280;59607;52.130;5.430;2023-01-16T04:05:51;99227.78;;;3.45;100.00
71774;BME280;59607;52.130;5.430;2023-01-16T04:08:32;99227.94;;;3.43;100.00
71774;BME280;59607;52.130;5.430;2023-01-16T04:11:09;99222.41;;;3.38;100.00
71774;BME280;59607;52.130;5.430;2023-01-16T04:13:58;99213.81;;;3.38;100.00
71774;BME280;59607;52.130;5.430;2023-01-16T04:16:32;99209.78;;;3.35;100.00
71774;BME280;59607;52.130;5.430;2023-01-16T04:19:03;99198.75;;;3.33;100.00
71774;BME280;59607;52.130;5.430;2023-01-16T04:21:34;99196.81;;;3.35;100.00
71774;BME280;59607;52.130;5.430;2023-01-16T04:24:00;99178.19;;;3.40;100.00
71774;BME280;59607;52.130;5.430;2023-01-16T04:26:32;99176.75;;;3.45;100.00
71774;BME280;59607;52.130;5.430;2023-01-16T04:28:58;99166.09;;;3.49;100.00
71774;BME280;59607;52.130;5.430;2023-01-16T04:31:25;99161.38;;;3.52;100.00
71774;BME280;59607;52.130;5.430;2023-01-16T04:33:56;99149.09;;;3.54;100.00
71774;BME280;59607;52.130;5.430;2023-01-16T04:36:23;99140.31;;;3.55;100.00
71774;BME280;59607;52.130;5.430;2023-01-16T04:38:49;99133.19;;;3.57;100.00
71774;BME280;59607;52.130;5.430;2023-01-16T04:41:15;99126.09;;;3.60;100.00
71774;BME280;59607;52.130;5.430;2023-01-16T04:44:09;99116.50;;;3.60;100.00
71774;BME280;59607;52.130;5.430;2023-01-16T04:46:39;99112.16;;;3.61;100.00
71774;BME280;59607;52.130;5.430;2023-01-16T04:49:09;99099.66;;;3.56;100.00
71774;BME280;59607;52.130;5.430;2023-01-16T04:51:36;99089.63;;;3.53;100.00
71774;BME280;59607;52.130;5.430;2023-01-16T04:54:05;99085.56;;;3.50;100.00
71774;BME280;59607;52.130;5.430;2023-01-16T04:56:34;99075.53;;;3.47;100.00
71774;BME280;59607;52.130;5.430;2023-01-16T04:59:02;99065.78;;;3.41;100.00
71774;BME280;59607;52.130;5.430;2023-01-16T05:01:29;99057.38;;;3.39;100.00
71774;BME280;59607;52.130;5.430;2023-01-16T05:04:04;99054.28;;;3.35;100.00
71774;BME280;59607;52.130;5.430;2023-01-16T05:06:34;99039.88;;;3.32;100.00
71774;BME280;59607;52.130;5.430;2023-01-16T05:09:05;99030.47;;;3.31;100.00
71774;BME280;59607;52.130;5.430;2023-01-16T05:11:32;99019.44;;;3.29;100.00
71774;BME280;59607;52.130;5.430;2023-01-16T05:14:05;99018.81;;;3.27;100.00
71774;BME280;59607;52.130;5.430;2023-01-16T05:16:35;99012.00;;;3.26;100.00
71774;BME280;59607;52.130;5.430;2023-01-16T05:19:08;99016.38;;;3.26;100.00
71774;BME280;59607;52.130;5.430;2023-01-16T05:21:35;98999.19;;;3.25;100.00
71774;BME280;59607;52.130;5.430;2023-01-16T05:24:03;99001.94;;;3.23;100.00
71774;BME280;59607;52.130;5.430;2023-01-16T05:26:57;98993.53;;;3.21;100.00
71774;BME280;59607;52.130;5.430;2023-01-16T05:29:27;98989.00;;;3.23;100.00
71774;BME280;59607;52.130;5.430;2023-01-16T05:31:59;98980.44;;;3.23;100.00
71774;BME280;59607;52.130;5.430;2023-01-16T05:34:32;98974.94;;;3.26;100.00
71774;BME280;59607;52.130;5.430;2023-01-16T05:36:58;98967.94;;;3.26;100.00
71774;BME280;59607;52.130;5.430;2023-01-16T05:39:24;98961.97;;;3.26;100.00
71774;BME280;59607;52.130;5.430;2023-01-16T05:41:52;98948.19;;;3.25;100.00
71774;BME280;59607;52.130;5.430;2023-01-16T05:44:24;98936.69;;;3.28;100.00
71774;BME280;59607;52.130;5.430;2023-01-16T05:46:50;98921.97;;;3.28;100.00
71774;BME280;59607;52.130;5.430;2023-01-16T05:49:20;98915.50;;;3.32;100.00
71774;BME280;59607;52.130;5.430;2023-01-16T05:51:47;98910.94;;;3.35;100.00
71774;BME280;59607;52.130;5.430;2023-01-16T05:54:13;98898.63;;;3.37;100.00
71774;BME280;59607;52.130;5.430;2023-01-16T05:56:42;98881.31;;;3.37;100.00
71774;BME280;59607;52.130;5.430;2023-01-16T05:59:13;98875.63;;;3.42;100.00
71774;BME280;59607;52.130;5.430;2023-01-16T06:01:39;98866.38;;;3.48;100.00
71774;BME280;59607;52.130;5.430;2023-01-16T06:04:09;98853.91;;;3.51;100.00
71774;BME280;59607;52.130;5.430;2023-01-16T06:06:35;98843.03;;;3.56;100.00
71774;BME280;59607;52.130;5.430;2023-01-16T06:09:02;98829.72;;;3.59;100.00
71774;BME280;59607;52.130;5.430;2023-01-16T06:11:31;98829.88;;;3.66;100.00
71774;BME280;59607;52.130;5.430;2023-01-16T06:13:59;98817.41;;;3.69;100.00
71774;BME280;59607;52.130;5.430;2023-01-16T06:16:34;98810.06;;;3.73;100.00
71774;BME280;59607;52.130;5.430;2023-01-16T06:19:04;98805.34;;;3.77;100.00
71774;BME280;59607;52.130;5.430;2023-01-16T06:21:30;98797.25;;;3.80;100.00
71774;BME280;59607;52.130;5.430;2023-01-16T06:23:59;98791.88;;;3.81;100.00
71774;BME280;59607;52.130;5.430;2023-01-16T06:26:29;98793.34;;;3.84;100.00
71774;BME280;59607;52.130;5.430;2023-01-16T06:28:55;98781.81;;;3.87;100.00
71774;BME280;59607;52.130;5.430;2023-01-16T06:31:25;98771.91;;;3.90;100.00
71774;BME280;59607;52.130;5.430;2023-01-16T06:34:03;98771.56;;;3.93;100.00
71774;BME280;59607;52.130;5.430;2023-01-16T06:36:41;98765.06;;;3.98;100.00
71774;BME280;59607;52.130;5.430;2023-01-16T06:39:10;98772.31;;;4.02;100.00
71774;BME280;59607;52.130;5.430;2023-01-16T06:41:44;98767.59;;;4.06;100.00
71774;BME280;59607;52.130;5.430;2023-01-16T06:44:10;98761.28;;;4.09;100.00
71774;BME280;59607;52.130;5.430;2023-01-16T06:46:40;98748.94;;;4.11;100.00
71774;BME280;59607;52.130;5.430;2023-01-16T06:49:10;98747.16;;;4.11;100.00
71774;BME280;59607;52.130;5.430;2023-01-16T06:51:53;98750.81;;;4.17;100.00
71774;BME280;59607;52.130;5.430;2023-01-16T06:54:24;98742.44;;;4.15;100.00
71774;BME280;59607;52.130;5.430;2023-01-16T06:56:50;98744.84;;;4.16;100.00
71774;BME280;59607;52.130;5.430;2023-01-16T06:59:23;98738.50;;;4.19;100.00
71774;BME280;59607;52.130;5.430;2023-01-16T07:01:51;98733.31;;;4.19;100.00
71774;BME280;59607;52.130;5.430;2023-01-16T07:04:18;98728.47;;;4.16;100.00
71774;BME280;59607;52.130;5.430;2023-01-16T07:06:47;98726.50;;;4.18;100.00
71774;BME280;59607;52.130;5.430;2023-01-16T07:09:17;98721.31;;;4.18;100.00
71774;BME280;59607;52.130;5.430;2023-01-16T07:11:46;98710.94;;;4.18;100.00
71774;BME280;59607;52.130;5.430;2023-01-16T07:14:17;98701.38;;;4.18;100.00
71774;BME280;59607;52.130;5.430;2023-01-16T07:17:02;98697.16;;;4.17;100.00
71774;BME280;59607;52.130;5.430;2023-01-16T07:19:49;98697.97;;;4.18;100.00
71774;BME280;59607;52.130;5.430;2023-01-16T07:22:36;98680.78;;;4.17;100.00
71774;BME280;59607;52.130;5.430;2023-01-16T07:25:33;98667.97;;;4.15;100.00
71774;BME280;59607;52.130;5.430;2023-01-16T07:28:03;98672.19;;;4.16;100.00
71774;BME280;59607;52.130;5.430;2023-01-16T07:30:30;98664.41;;;4.16;100.00
71774;BME280;59607;52.130;5.430;2023-01-16T07:32:59;98644.44;;;4.17;100.00
71774;BME280;59607;52.130;5.430;2023-01-16T07:35:29;98635.06;;;4.16;100.00
71774;BME280;59607;52.130;5.430;2023-01-16T07:37:56;98625.50;;;4.16;100.00
71774;BME280;59607;52.130;5.430;2023-01-16T07:40:23;98620.50;;;4.15;100.00
71774;BME280;59607;52.130;5.430;2023-01-16T07:42:52;98609.28;;;4.14;100.00
71774;BME280;59607;52.130;5.430;2023-01-16T07:45:19;98610.28;;;4.13;100.00
71774;BME280;59607;52.130;5.430;2023-01-16T07:47:50;98603.09;;;4.15;100.00
71774;BME280;59607;52.130;5.430;2023-01-16T07:50:17;98598.91;;;4.14;100.00
71774;BME280;59607;52.130;5.430;2023-01-16T07:52:44;98588.06;;;4.11;100.00
71774;BME280;59607;52.130;5.430;2023-01-16T07:55:13;98581.28;;;4.10;100.00
71774;BME280;59607;52.130;5.430;2023-01-16T07:57:43;98568.66;;;4.06;100.00
71774;BME280;59607;52.130;5.430;2023-01-16T08:00:11;98564.47;;;4.05;100.00
71774;BME280;59607;52.130;5.430;2023-01-16T08:02:44;98542.44;;;4.01;100.00
71774;BME280;59607;52.130;5.430;2023-01-16T08:05:11;98538.44;;;3.99;100.00
71774;BME280;59607;52.130;5.430;2023-01-16T08:07:37;98530.47;;;4.00;100.00
71774;BME280;59607;52.130;5.430;2023-01-16T08:10:10;98525.47;;;3.99;100.00
71774;BME280;59607;52.130;5.430;2023-01-16T08:12:37;98514.28;;;3.98;100.00
71774;BME280;59607;52.130;5.430;2023-01-16T08:15:11;98512.31;;;4.00;100.00
71774;BME280;59607;52.130;5.430;2023-01-16T08:17:38;98503.53;;;4.01;100.00
71774;BME280;59607;52.130;5.430;2023-01-16T08:20:10;98496.94;;;3.99;100.00
71774;BME280;59607;52.130;5.430;2023-01-16T08:22:45;98481.19;;;4.00;100.00
71774;BME280;59607;52.130;5.430;2023-01-16T08:25:21;98469.19;;;3.99;100.00
71774;BME280;59607;52.130;5.430;2023-01-16T08:27:48;98464.00;;;3.99;100.00
71774;BME280;59607;52.130;5.430;2023-01-16T08:30:15;98457.22;;;3.98;100.00
71774;BME280;59607;52.130;5.430;2023-01-16T08:33:00;98451.03;;;3.99;100.00
71774;BME280;59607;52.130;5.430;2023-01-16T08:35:46;98443.06;;;4.01;100.00
71774;BME280;59607;52.130;5.430;2023-01-16T08:38:14;98430.72;;;4.03;100.00
71774;BME280;59607;52.130;5.430;2023-01-16T08:40:41;98423.59;;;4.05;100.00
71774;BME280;59607;52.130;5.430;2023-01-16T08:43:10;98418.03;;;4.08;100.00
71774;BME280;59607;52.130;5.430;2023-01-16T08:45:55;98425.63;;;4.10;100.00
71774;BME280;59607;52.130;5.430;2023-01-16T08:48:56;98413.66;;;4.09;100.00
71774;BME280;59607;52.130;5.430;2023-01-16T08:51:43;98407.47;;;4.10;100.00
71774;BME280;59607;52.130;5.430;2023-01-16T08:54:17;98400.31;;;4.12;100.00
71774;BME280;59607;52.130;5.430;2023-01-16T08:56:46;98394.97;;;4.13;100.00
71774;BME280;59607;52.130;5.430;2023-01-16T08:59:18;98398.34;;;4.14;100.00
71774;BME280;59607;52.130;5.430;2023-01-16T09:01:44;98388.78;;;4.14;100.00
71774;BME280;59607;52.130;5.430;2023-01-16T09:04:11;98390.19;;;4.17;100.00
71774;BME280;59607;52.130;5.430;2023-01-16T09:06:43;98379.69;;;4.25;100.00
71774;BME280;59607;52.130;5.430;2023-01-16T09:09:09;98377.91;;;4.26;100.00
71774;BME280;59607;52.130;5.430;2023-01-16T09:11:38;98364.59;;;4.29;100.00
71774;BME280;59607;52.130;5.430;2023-01-16T09:14:28;98363.94;;;4.27;100.00
71774;BME280;59607;52.130;5.430;2023-01-16T09:16:55;98356.25;;;4.34;100.00
71774;BME280;59607;52.130;5.430;2023-01-16T09:19:21;98348.09;;;4.37;100.00
71774;BME280;59607;52.130;5.430;2023-01-16T09:21:53;98342.13;;;4.36;100.00
71774;BME280;59607;52.130;5.430;2023-01-16T09:24:19;98335.94;;;4.37;100.00
71774;BME280;59607;52.130;5.430;2023-01-16T09:26:46;98334.75;;;4.40;100.00
71774;BME280;59607;52.130;5.430;2023-01-16T09:29:15;98323.56;;;4.39;100.00
71774;BME280;59607;52.130;5.430;2023-01-16T09:31:42;98322.22;;;4.43;100.00
71774;BME280;59607;52.130;5.430;2023-01-16T09:34:11;98308.22;;;4.44;100.00
71774;BME280;59607;52.130;5.430;2023-01-16T09:36:40;98314.84;;;4.47;100.00
71774;BME280;59607;52.130;5.430;2023-01-16T09:39:06;98317.09;;;4.50;100.00
71774;BME280;59607;52.130;5.430;2023-01-16T09:41:43;98288.16;;;4.53;100.00
71774;BME280;59607;52.130;5.430;2023-01-16T09:44:32;98289.56;;;4.56;100.00
71774;BME280;59607;52.130;5.430;2023-01-16T09:47:02;98284.81;;;4.60;100.00
71774;BME280;59607;52.130;5.430;2023-01-16T09:49:48;98281.84;;;4.63;100.00
71774;BME280;59607;52.130;5.430;2023-01-16T09:52:30;98282.91;;;4.68;100.00
71774;BME280;59607;52.130;5.430;2023-01-16T09:55:26;98277.50;;;4.70;100.00
71774;BME280;59607;52.130;5.430;2023-01-16T09:58:18;98274.34;;;4.75;100.00
71774;BME280;59607;52.130;5.430;2023-01-16T10:01:11;98264.38;;;4.78;100.00
71774;BME280;59607;52.130;5.430;2023-01-16T10:04:12;98260.41;;;4.82;100.00
71774;BME280;59607;52.130;5.430;2023-01-16T10:15:56;98254.69;;;4.94;100.00
71774;BME280;59607;52.130;5.430;2023-01-16T10:18:52;98250.13;;;4.96;100.00
71774;BME280;59607;52.130;5.430;2023-01-16T10:30:07;98227.56;;;5.03;100.00
71774;BME280;59607;52.130;5.430;2023-01-16T10:33:08;98231.56;;;4.99;100.00
71774;BME280;59607;52.130;5.430;2023-01-16T10:36:01;98226.56;;;4.98;100.00
71774;BME280;59607;52.130;5.430;2023-01-16T10:38:39;98208.56;;;5.03;100.00
71774;BME280;59607;52.130;5.430;2023-01-16T10:41:16;98213.41;;;5.06;100.00
71774;BME280;59607;52.130;5.430;2023-01-16T10:44:46;98199.81;;;5.04;100.00
71774;BME280;59607;52.130;5.430;2023-01-16T10:47:44;98199.19;;;5.02;100.00
71774;BME280;59607;52.130;5.430;2023-01-16T10:50:29;98192.44;;;5.08;100.00
71774;BME280;59607;52.130;5.430;2023-01-16T10:53:08;98188.22;;;5.06;100.00
71774;BME280;59607;52.130;5.430;2023-01-16T10:55:38;98175.84;;;5.09;100.00
71774;BME280;59607;52.130;5.430;2023-01-16T10:58:36;98181.03;;;5.09;100.00
71774;BME280;59607;52.130;5.430;2023-01-16T11:01:22;98169.00;;;5.01;100.00
71774;BME280;59607;52.130;5.430;2023-01-16T11:03:58;98169.00;;;5.01;100.00
71774;BME280;59607;52.130;5.430;2023-01-16T11:06:30;98161.41;;;4.99;100.00
71774;BME280;59607;52.130;5.430;2023-01-16T11:09:04;98159.97;;;4.97;100.00
71774;BME280;59607;52.130;5.430;2023-01-16T11:11:37;98149.78;;;4.95;100.00
71774;BME280;59607;52.130;5.430;2023-01-16T11:14:26;98151.00;;;4.92;100.00
71774;BME280;59607;52.130;5.430;2023-01-16T11:20:03;98127.81;;;4.91;100.00
71774;BME280;59607;52.130;5.430;2023-01-16T11:22:30;98119.63;;;4.94;100.00
71774;BME280;59607;52.130;5.430;2023-01-16T11:25:13;98114.81;;;4.91;100.00
71774;BME280;59607;52.130;5.430;2023-01-16T11:27:49;98117.03;;;4.94;100.00
71774;BME280;59607;52.130;5.430;2023-01-16T11:30:20;98110.25;;;4.93;100.00
71774;BME280;59607;52.130;5.430;2023-01-16T11:32:53;98108.03;;;4.97;100.00
71774;BME280;59607;52.130;5.430;2023-01-16T11:35:35;98095.66;;;4.99;100.00
71774;BME280;59607;52.130;5.430;2023-01-16T11:38:11;98084.06;;;5.01;100.00
71774;BME280;59607;52.130;5.430;2023-01-16T11:40:46;98076.09;;;5.10;100.00
71774;BME280;59607;52.130;5.430;2023-01-16T11:43:22;98078.34;;;5.19;100.00
71774;BME280;59607;52.130;5.430;2023-01-16T11:49:15;98062.81;;;5.74;100.00
71774;BME280;59607;52.130;5.430;2023-01-16T11:51:43;98063.41;;;6.03;100.00
71774;BME280;59607;52.130;5.430;2023-01-16T11:54:14;98054.97;;;6.28;100.00
71774;BME280;59607;52.130;5.430;2023-01-16T11:56:53;98045.16;;;6.30;100.00
71774;BME280;59607;52.130;5.430;2023-01-16T12:05:25;98023.72;;;6.28;100.00
71774;BME280;59607;52.130;5.430;2023-01-16T12:08:18;98019.13;;;6.30;100.00
71774;BME280;59607;52.130;5.430;2023-01-16T12:20:08;97992.09;;;6.31;100.00
71774;BME280;59607;52.130;5.430;2023-01-16T12:26:12;97986.72;;;6.26;100.00
71774;BME280;59607;52.130;5.430;2023-01-16T12:38:05;97971.75;;;5.94;100.00
71774;BME280;59607;52.130;5.430;2023-01-16T12:41:03;97970.97;;;5.87;100.00
71774;BME280;59607;52.130;5.430;2023-01-16T13:00:17;97938.13;;;5.92;100.00
71774;BME280;59607;52.130;5.430;2023-01-16T13:03:25;97933.72;;;6.00;100.00
71774;BME280;59607;52.130;5.430;2023-01-16T13:05:53;97928.50;;;6.00;100.00
71774;BME280;59607;52.130;5.430;2023-01-16T13:08:33;97921.13;;;5.97;100.00
71774;BME280;59607;52.130;5.430;2023-01-16T13:11:19;97917.69;;;6.03;100.00
71774;BME280;59607;52.130;5.430;2023-01-16T13:14:10;97917.31;;;6.06;100.00
71774;BME280;59607;52.130;5.430;2023-01-16T13:17:00;97918.69;;;6.09;100.00
71774;BME280;59607;52.130;5.430;2023-01-16T13:19:48;97904.84;;;6.15;100.00
71774;BME280;59607;52.130;5.430;2023-01-16T13:22:25;97906.69;;;6.14;100.00
71774;BME280;59607;52.130;5.430;2023-01-16T13:25:06;97902.63;;;6.19;100.00
71774;BME280;59607;52.130;5.430;2023-01-16T13:27:56;97896.25;;;6.21;100.00
71774;BME280;59607;52.130;5.430;2023-01-16T13:30:42;97890.22;;;6.21;100.00
71774;BME280;59607;52.130;5.430;2023-01-16T13:33:15;97887.41;;;6.22;100.00
71774;BME280;59607;52.130;5.430;2023-01-16T13:36:00;97876.19;;;6.22;100.00
71774;BME280;59607;52.130;5.430;2023-01-16T13:41:30;97885.78;;;6.28;100.00
71774;BME280;59607;52.130;5.430;2023-01-16T13:44:22;97882.19;;;6.29;100.00
71774;BME280;59607;52.130;5.430;2023-01-16T13:47:15;97879.78;;;6.27;100.00
71774;BME280;59607;52.130;5.430;2023-01-16T13:49:52;97874.63;;;6.21;100.00
71774;BME280;59607;52.130;5.430;2023-01-16T13:52:24;97876.41;;;6.20;100.00
71774;BME280;59607;52.130;5.430;2023-01-16T13:54:57;97871.22;;;6.13;100.00
71774;BME280;59607;52.130;5.430;2023-01-16T13:57:27;97867.63;;;6.14;100.00
71774;BME280;59607;52.130;5.430;2023-01-16T14:00:08;97863.81;;;6.17;100.00
71774;BME280;59607;52.130;5.430;2023-01-16T14:02:42;97869.25;;;6.09;100.00
71774;BME280;59607;52.130;5.430;2023-01-16T14:11:36;97849.25;;;6.02;100.00
71774;BME280;59607;52.130;5.430;2023-01-16T14:23:19;97844.03;;;6.02;100.00
71774;BME280;59607;52.130;5.430;2023-01-16T14:26:32;97841.22;;;6.04;100.00
71774;BME280;59607;52.130;5.430;2023-01-16T14:29:01;97844.03;;;6.02;100.00
71774;BME280;59607;52.130;5.430;2023-01-16T14:31:54;97834.44;;;6.03;100.00
71774;BME280;59607;52.130;5.430;2023-01-16T14:34:32;97840.41;;;6.03;100.00
71774;BME280;59607;52.130;5.430;2023-01-16T14:37:03;97842.44;;;6.01;100.00
71774;BME280;59607;52.130;5.430;2023-01-16T14:39:37;97851.66;;;5.97;100.00
71774;BME280;59607;52.130;5.430;2023-01-16T14:42:50;97844.88;;;5.96;100.00
71774;BME280;59607;52.130;5.430;2023-01-16T14:55:48;97826.47;;;5.91;100.00
71774;BME280;59607;52.130;5.430;2023-01-16T15:01:40;97832.72;;;5.83;100.00
71774;BME280;59607;52.130;5.430;2023-01-16T15:04:37;97830.53;;;5.80;100.00
71774;BME280;59607;52.130;5.430;2023-01-16T15:07:09;97828.53;;;5.82;100.00
71774;BME280;59607;52.130;5.430;2023-01-16T15:09:39;97830.72;;;5.78;100.00
71774;BME280;59607;52.130;5.430;2023-01-16T15:12:17;97831.16;;;5.75;100.00
71774;BME280;59607;52.130;5.430;2023-01-16T15:14:55;97832.94;;;5.75;100.00
71774;BME280;59607;52.130;5.430;2023-01-16T15:17:33;97828.75;;;5.74;100.00
71774;BME280;59607;52.130;5.430;2023-01-16T15:20:29;97827.75;;;5.75;100.00
71774;BME280;59607;52.130;5.430;2023-01-16T15:23:38;97830.16;;;5.70;100.00
71774;BME280;59607;52.130;5.430;2023-01-16T15:29:34;97833.97;;;5.67;100.00
71774;BME280;59607;52.130;5.430;2023-01-16T15:32:12;97839.59;;;5.64;100.00
71774;BME280;59607;52.130;5.430;2023-01-16T15:37:56;97853.13;;;5.79;100.00
71774;BME280;59607;52.130;5.430;2023-01-16T15:40:47;97854.75;;;5.74;100.00
71774;BME280;59607;52.130;5.430;2023-01-16T15:43:21;97848.00;;;5.66;100.00
71774;BME280;59607;52.130;5.430;2023-01-16T15:46:15;97843.00;;;5.64;100.00
71774;BME280;59607;52.130;5.430;2023-01-16T15:49:21;97850.19;;;5.62;100.00
71774;BME280;59607;52.130;5.430;2023-01-16T15:51:57;97842.78;;;5.66;100.00
71774;BME280;59607;52.130;5.430;2023-01-16T15:54:27;97849.78;;;5.65;100.00
71774;BME280;59607;52.130;5.430;2023-01-16T15:56:53;97841.59;;;5.62;100.00
71774;BME280;59607;52.130;5.430;2023-01-16T15:59:32;97839.78;;;5.62;100.00
71774;BME280;59607;52.130;5.430;2023-01-16T16:02:26;97827.19;;;5.66;100.00
71774;BME280;59607;52.130;5.430;2023-01-16T16:04:59;97828.56;;;5.68;100.00
71774;BME280;59607;52.130;5.430;2023-01-16T16:07:34;97824.38;;;5.67;100.00
71774;BME280;59607;52.130;5.430;2023-01-16T16:10:01;97826.19;;;5.67;100.00
71774;BME280;59607;52.130;5.430;2023-01-16T16:12:30;97837.19;;;5.62;100.00
71774;BME280;59607;52.130;5.430;2023-01-16T16:15:20;97829.00;;;5.59;100.00
71774;BME280;59607;52.130;5.430;2023-01-16T16:18:15;97830.22;;;5.56;100.00